Time;durP1;ratioP1;P1;durP2;ratioP2;P2;SDS_P1;SDS_P2;PMS_P1;PMS_P2;Temp;Humidity;BMP_temperature;BMP_pressure;BME280_temperature;BME280_humidity;BME280_pressure;Samples;Min_cycle;Max_cycle;Signal;HPM_P1;HPM_P2
2022/10/30 18:13:58;;;;;;;24.27;5.07;;;;;;;;;;6223148;23;20421;-53
2022/10/30 18:16:45;;;;;;;21.33;5.55;;;;;;;;;;6227858;23;20764;-47
2022/10/30 18:19:19;;;;;;;20.80;5.80;;;;;;;;;;6256429;22;20023;-65
2022/10/30 18:21:53;;;;;;;25.02;5.38;;;;;;;;;;6266575;22;20020;-51
2022/10/30 18:24:22;;;;;;;26.25;4.85;;;;;;;;;;6239779;22;20028;-55
2022/10/30 18:26:49;;;;;;;22.73;5.47;;;;;;;;;;6264524;22;20552;-53
2022/10/30 18:29:23;;;;;;;24.52;5.05;;;;;;;;;;6267578;22;20015;-54
2022/10/30 18:31:50;;;;;;;18.17;5.03;;;;;;;;;;6266933;22;20023;-54
2022/10/30 18:34:24;;;;;;;17.58;4.60;;;;;;;;;;6267064;22;20030;-55
2022/10/30 18:36:51;;;;;;;20.67;5.07;;;;;;;;;;6267512;22;20027;-53
2022/10/30 18:39:19;;;;;;;21.42;5.18;;;;;;;;;;6266024;22;20499;-59
2022/10/30 18:41:52;;;;;;;19.60;5.05;;;;;;;;;;6266926;22;20020;-59
2022/10/30 18:44:19;;;;;;;17.33;4.60;;;;;;;;;;6267658;22;20020;-60
2022/10/30 18:46:47;;;;;;;18.15;5.05;;;;;;;;;;6266910;22;20023;-59
2022/10/30 18:49:30;;;;;;;23.40;4.90;;;;;;;;;;6256189;22;20030;-59
2022/10/30 18:52:04;;;;;;;18.88;4.82;;;;;;;;;;6266364;22;20094;-59
2022/10/30 18:54:38;;;;;;;18.70;5.00;;;;;;;;;;6267316;22;20023;-59
2022/10/30 18:57:05;;;;;;;22.60;4.45;;;;;;;;;;6265771;22;20024;-53
2022/10/30 18:59:33;;;;;;;15.00;5.20;;;;;;;;;;6266205;22;20030;-46
2022/10/30 19:02:20;;;;;;;16.75;4.40;;;;;;;;;;6264926;22;20461;-48
2022/10/30 19:04:55;;;;;;;18.05;4.65;;;;;;;;;;6266026;22;20098;-50
2022/10/30 19:07:23;;;;;;;19.95;4.75;;;;;;;;;;6264894;22;20408;-50
2022/10/30 19:09:50;;;;;;;17.38;4.63;;;;;;;;;;6266220;22;20106;-51
2022/10/30 19:12:23;;;;;;;15.95;4.47;;;;;;;;;;6265753;22;20311;-51
2022/10/30 19:15:04;;;;;;;17.13;4.70;;;;;;;;;;6263744;22;20025;-60
2022/10/30 19:17:38;;;;;;;24.05;5.85;;;;;;;;;;6265942;22;20130;-54
2022/10/30 19:20:06;;;;;;;17.83;5.05;;;;;;;;;;6265217;22;20030;-51
2022/10/30 19:22:33;;;;;;;23.75;4.95;;;;;;;;;;6264234;22;20476;-50
2022/10/30 19:25:17;;;;;;;17.67;5.03;;;;;;;;;;6266808;22;20358;-52
2022/10/30 19:27:45;;;;;;;16.10;5.32;;;;;;;;;;6265955;22;20026;-50
2022/10/30 19:30:19;;;;;;;18.75;5.35;;;;;;;;;;6254145;22;20111;-53
2022/10/30 19:32:46;;;;;;;16.98;4.70;;;;;;;;;;6266960;22;20026;-53
2022/10/30 19:35:14;;;;;;;20.33;5.10;;;;;;;;;;6267992;22;20487;-59
2022/10/30 19:37:48;;;;;;;13.80;4.60;;;;;;;;;;6266925;22;20436;-60
2022/10/30 19:40:18;;;;;;;16.02;5.07;;;;;;;;;;6256206;22;20376;-61
2022/10/30 19:42:53;;;;;;;12.82;4.32;;;;;;;;;;6268673;22;20026;-60
2022/10/30 19:45:28;;;;;;;18.40;4.78;;;;;;;;;;6241694;22;20051;-60
2022/10/30 19:48:04;;;;;;;19.60;6.72;;;;;;;;;;6267240;22;20337;-60
2022/10/30 19:50:36;;;;;;;25.92;7.13;;;;;;;;;;6268612;22;20039;-60
2022/10/30 19:53:09;;;;;;;;;;;;;;;;;;6267507;22;20034;-64
2022/10/30 19:55:37;;;;;;;15.80;6.65;;;;;;;;;;6267935;22;19919;-60
2022/10/30 19:58:05;;;;;;;19.27;6.80;;;;;;;;;;6267608;22;20363;-49
2022/10/30 20:00:40;;;;;;;21.65;6.30;;;;;;;;;;6268867;22;20099;-50
2022/10/30 20:03:07;;;;;;;25.42;7.05;;;;;;;;;;6267601;22;20392;-49
2022/10/30 20:05:44;;;;;;;14.55;6.50;;;;;;;;;;6267618;22;20026;-54
2022/10/30 20:08:15;;;;;;;20.73;7.55;;;;;;;;;;6268289;22;20024;-50
2022/10/30 20:10:49;;;;;;;;;;;;;;;;;;6269251;22;20020;-51
2022/10/30 20:13:24;;;;;;;22.23;7.00;;;;;;;;;;6267918;22;19925;-60
2022/10/30 20:15:52;;;;;;;18.92;7.00;;;;;;;;;;6266630;22;20102;-59
2022/10/30 20:18:34;;;;;;;19.70;7.00;;;;;;;;;;6269148;22;20102;-59
2022/10/30 20:21:08;;;;;;;25.45;7.32;;;;;;;;;;6267533;22;20027;-60
2022/10/30 20:23:42;;;;;;;17.33;7.35;;;;;;;;;;6267619;22;20058;-60
2022/10/30 20:26:18;;;;;;;26.25;7.90;;;;;;;;;;6268811;22;20699;-59
2022/10/30 20:28:51;;;;;;;26.33;7.90;;;;;;;;;;6261740;22;20019;-60
2022/10/30 20:31:19;;;;;;;24.05;7.72;;;;;;;;;;6263977;22;20051;-60
2022/10/30 20:33:46;;;;;;;;;;;;;;;;;;6265004;22;20099;-60
2022/10/30 20:36:20;;;;;;;27.33;7.45;;;;;;;;;;6252654;22;19946;-60
2022/10/30 20:38:47;;;;;;;29.65;8.75;;;;;;;;;;6262624;22;20026;-60
2022/10/30 20:41:22;;;;;;;21.67;7.38;;;;;;;;;;6267865;22;20488;-60
2022/10/30 20:43:55;;;;;;;23.75;8.57;;;;;;;;;;6266751;22;20023;-60
2022/10/30 20:46:22;;;;;;;23.80;7.80;;;;;;;;;;6269153;22;20019;-60
2022/10/30 20:48:56;;;;;;;24.63;7.70;;;;;;;;;;6268364;22;20468;-60
2022/10/30 20:51:24;;;;;;;;;;;;;;;;;;6267296;22;20027;-49
2022/10/30 20:53:51;;;;;;;43.42;10.40;;;;;;;;;;6267211;22;20378;-64
2022/10/30 20:56:25;;;;;;;22.05;8.52;;;;;;;;;;6266761;22;20134;-64
2022/10/30 20:58:52;;;;;;;33.05;9.68;;;;;;;;;;6266665;22;20026;-65
2022/10/30 21:01:20;;;;;;;35.20;10.25;;;;;;;;;;6266038;22;20498;-64
2022/10/30 21:03:53;;;;;;;26.90;10.02;;;;;;;;;;6267519;22;20043;-64
2022/10/30 21:06:27;;;;;;;30.92;10.40;;;;;;;;;;6264816;22;20440;-65
2022/10/30 21:09:01;;;;;;;23.15;9.65;;;;;;;;;;6266931;22;20034;-61
2022/10/30 21:11:32;;;;;;;35.55;11.57;;;;;;;;;;6267682;22;20487;-60
2022/10/30 21:13:59;;;;;;;28.55;9.98;;;;;;;;;;6266422;22;20098;-60
2022/10/30 21:16:40;;;;;;;32.45;11.40;;;;;;;;;;6265373;22;20469;-60
2022/10/30 21:19:07;;;;;;;34.75;12.15;;;;;;;;;;6267663;22;20422;-60
2022/10/30 21:21:41;;;;;;;32.95;12.18;;;;;;;;;;6267341;22;20099;-60
2022/10/30 21:24:09;;;;;;;39.78;14.13;;;;;;;;;;6268362;22;20020;-60
2022/10/30 21:26:36;;;;;;;37.95;14.60;;;;;;;;;;6264878;22;20028;-60
2022/10/30 21:29:10;;;;;;;50.35;16.23;;;;;;;;;;6267666;22;20098;-48
2022/10/30 21:31:37;;;;;;;46.10;17.17;;;;;;;;;;6266132;22;20306;-60
2022/10/30 21:34:05;;;;;;;59.47;20.10;;;;;;;;;;6267008;22;20025;-60
2022/10/30 21:36:38;;;;;;;61.63;19.20;;;;;;;;;;6266878;22;20038;-60
2022/10/30 21:39:05;;;;;;;;;;;;;;;;;;6266825;22;20026;-60
2022/10/30 21:41:33;;;;;;;65.75;21.35;;;;;;;;;;6268262;22;19915;-60
2022/10/30 21:44:06;;;;;;;79.63;26.48;;;;;;;;;;6266519;22;20110;-59
2022/10/30 21:46:41;;;;;;;60.42;23.48;;;;;;;;;;6267368;22;20356;-63
2022/10/30 21:49:11;;;;;;;72.07;26.33;;;;;;;;;;6267948;22;20024;-64
2022/10/30 21:51:39;;;;;;;82.82;27.05;;;;;;;;;;6266281;22;20359;-60
2022/10/30 21:54:12;;;;;;;71.90;25.27;;;;;;;;;;6266353;22;20023;-60
2022/10/30 21:56:39;;;;;;;85.78;27.25;;;;;;;;;;6266275;22;20023;-60
2022/10/30 21:59:13;;;;;;;65.93;26.90;;;;;;;;;;6267137;22;20038;-60
2022/10/30 22:01:41;;;;;;;65.97;24.63;;;;;;;;;;6267147;22;20058;-60
2022/10/30 22:04:08;;;;;;;;;;;;;;;;;;6267212;22;20409;-59
2022/10/30 22:06:43;;;;;;;73.85;25.05;;;;;;;;;;6265892;22;20396;-50
2022/10/30 22:09:13;;;;;;;77.25;26.80;;;;;;;;;;6266175;22;20024;-60
2022/10/30 22:11:48;;;;;;;86.95;27.17;;;;;;;;;;6266921;22;20020;-60
2022/10/30 22:14:15;;;;;;;81.90;27.27;;;;;;;;;;6266804;22;20019;-60
2022/10/30 22:16:42;;;;;;;85.82;28.00;;;;;;;;;;6265474;22;20028;-60
2022/10/30 22:19:15;;;;;;;97.03;30.27;;;;;;;;;;6266299;22;20034;-60
2022/10/30 22:21:42;;;;;;;85.18;27.73;;;;;;;;;;6266413;22;20016;-60
2022/10/30 22:24:16;;;;;;;108.68;29.35;;;;;;;;;;6266320;22;20062;-60
2022/10/30 22:26:43;;;;;;;116.38;30.65;;;;;;;;;;6268467;22;20235;-50
2022/10/30 22:29:11;;;;;;;105.05;28.67;;;;;;;;;;6268534;22;20027;-60
2022/10/30 22:31:44;;;;;;;96.50;27.58;;;;;;;;;;6268511;22;20747;-59
2022/10/30 22:34:11;;;;;;;111.88;31.17;;;;;;;;;;6269911;22;20103;-59
2022/10/30 22:36:45;;;;;;;120.15;31.77;;;;;;;;;;6268851;22;20020;-59
2022/10/30 22:39:13;;;;;;;100.10;29.20;;;;;;;;;;6269698;22;20457;-59
2022/10/30 22:41:46;;;;;;;131.32;32.28;;;;;;;;;;6269366;22;20102;-59
2022/10/30 22:44:17;;;;;;;134.00;32.90;;;;;;;;;;6269460;22;20045;-60
2022/10/30 22:46:51;;;;;;;114.50;29.70;;;;;;;;;;6269351;22;20457;-60
2022/10/30 22:49:19;;;;;;;84.20;28.40;;;;;;;;;;6268432;22;20106;-59
2022/10/30 22:51:46;;;;;;;117.93;30.38;;;;;;;;;;6270552;22;20494;-59
2022/10/30 22:54:19;;;;;;;108.97;29.58;;;;;;;;;;6268838;22;20403;-60
2022/10/30 22:56:46;;;;;;;120.35;28.52;;;;;;;;;;6268651;22;20129;-60
2022/10/30 22:59:14;;;;;;;93.50;28.17;;;;;;;;;;6269939;22;20115;-60
2022/10/30 23:01:47;;;;;;;113.82;27.67;;;;;;;;;;6269276;22;20026;-60
2022/10/30 23:04:15;;;;;;;107.35;28.65;;;;;;;;;;6269215;22;20107;-53
2022/10/30 23:06:42;;;;;;;81.78;24.63;;;;;;;;;;6269583;22;20055;-60
2022/10/30 23:09:20;;;;;;;85.65;25.98;;;;;;;;;;6268921;22;20095;-59
2022/10/30 23:11:47;;;;;;;67.15;22.13;;;;;;;;;;6267842;22;20028;-59
2022/10/30 23:14:14;;;;;;;67.75;23.13;;;;;;;;;;6267822;22;20030;-59
2022/10/30 23:16:55;;;;;;;66.97;22.20;;;;;;;;;;6269126;22;20020;-60
2022/10/30 23:19:22;;;;;;;115.22;27.35;;;;;;;;;;6268696;22;20487;-60
2022/10/30 23:21:57;;;;;;;109.88;26.35;;;;;;;;;;6267099;22;20560;-52
2022/10/30 23:24:25;;;;;;;107.53;27.83;;;;;;;;;;6269847;22;20026;-58
2022/10/30 23:26:52;;;;;;;71.10;22.80;;;;;;;;;;6269040;22;20016;-66
2022/10/30 23:29:26;;;;;;;64.47;21.35;;;;;;;;;;6268421;22;20103;-65
2022/10/30 23:31:53;;;;;;;74.57;22.17;;;;;;;;;;6269918;22;20023;-66
2022/10/30 23:34:27;;;;;;;88.80;25.42;;;;;;;;;;6269257;22;20093;-66
2022/10/30 23:36:54;;;;;;;67.60;21.50;;;;;;;;;;6269523;22;20134;-66
2022/10/30 23:39:28;;;;;;;103.00;24.60;;;;;;;;;;6269166;22;20102;-65
2022/10/30 23:42:14;;;;;;;84.68;24.25;;;;;;;;;;6268559;22;20020;-51
2022/10/30 23:44:42;;;;;;;65.15;21.00;;;;;;;;;;6270042;22;20534;-60
2022/10/30 23:47:15;;;;;;;78.53;23.40;;;;;;;;;;6269280;22;20026;-60
2022/10/30 23:49:42;;;;;;;70.00;23.00;;;;;;;;;;6270104;22;20020;-60
2022/10/30 23:52:10;;;;;;;55.95;20.02;;;;;;;;;;6271089;22;20027;-59
2022/10/30 23:54:43;;;;;;;51.70;21.27;;;;;;;;;;6269504;22;20026;-59
2022/10/30 23:57:10;;;;;;;63.33;22.25;;;;;;;;;;6269493;22;20030;-60
2022/10/30 23:59:38;;;;;;;65.95;22.30;;;;;;;;;;6268648;22;20437;-60
